sensor_id;sensor_type;location;lat;lon;timestamp;temperature;humidity
4487;DHT22;2256;48.740;9.106;2023-12-20T00:00:59;6.10;99.90
4487;DHT22;2256;48.740;9.106;2023-12-20T00:03:26;6.10;99.90
4487;DHT22;2256;48.740;9.106;2023-12-20T00:05:52;6.10;99.90
4487;DHT22;2256;48.740;9.106;2023-12-20T00:08:19;6.10;99.90
4487;DHT22;2256;48.740;9.106;2023-12-20T00:10:46;6.10;99.90
4487;DHT22;2256;48.740;9.106;2023-12-20T00:13:13;6.10;99.90
4487;DHT22;2256;48.740;9.106;2023-12-20T00:15:41;6.10;99.90
4487;DHT22;2256;48.740;9.106;2023-12-20T00:18:07;6.10;99.90
4487;DHT22;2256;48.740;9.106;2023-12-20T00:20:34;6.00;99.90
4487;DHT22;2256;48.740;9.106;2023-12-20T00:23:01;6.10;99.90
4487;DHT22;2256;48.740;9.106;2023-12-20T00:25:28;6.20;99.90
4487;DHT22;2256;48.740;9.106;2023-12-20T00:27:55;6.10;99.90
4487;DHT22;2256;48.740;9.106;2023-12-20T00:30:22;6.00;99.90
4487;DHT22;2256;48.740;9.106;2023-12-20T00:32:51;5.90;99.90
4487;DHT22;2256;48.740;9.106;2023-12-20T00:35:19;5.90;99.90
4487;DHT22;2256;48.740;9.106;2023-12-20T00:37:45;5.90;99.90
4487;DHT22;2256;48.740;9.106;2023-12-20T00:40:12;5.90;99.90
4487;DHT22;2256;48.740;9.106;2023-12-20T00:42:39;6.00;99.90
4487;DHT22;2256;48.740;9.106;2023-12-20T00:45:06;6.00;99.90
4487;DHT22;2256;48.740;9.106;2023-12-20T00:47:33;5.90;99.90
4487;DHT22;2256;48.740;9.106;2023-12-20T00:50:02;5.80;99.90
4487;DHT22;2256;48.740;9.106;2023-12-20T00:52:28;5.70;99.90
4487;DHT22;2256;48.740;9.106;2023-12-20T00:54:55;5.60;99.90
4487;DHT22;2256;48.740;9.106;2023-12-20T00:57:22;5.70;99.90
4487;DHT22;2256;48.740;9.106;2023-12-20T00:59:49;5.70;99.90
4487;DHT22;2256;48.740;9.106;2023-12-20T01:02:15;5.60;99.90
4487;DHT22;2256;48.740;9.106;2023-12-20T01:04:42;5.70;99.90
4487;DHT22;2256;48.740;9.106;2023-12-20T01:07:11;5.60;99.90
4487;DHT22;2256;48.740;9.106;2023-12-20T01:09:38;5.50;99.90
4487;DHT22;2256;48.740;9.106;2023-12-20T01:12:05;5.40;99.90
4487;DHT22;2256;48.740;9.106;2023-12-20T01:14:32;5.40;99.90
4487;DHT22;2256;48.740;9.106;2023-12-20T01:16:59;5.40;99.90
4487;DHT22;2256;48.740;9.106;2023-12-20T01:19:26;5.40;99.90
4487;DHT22;2256;48.740;9.106;2023-12-20T01:21:54;5.50;99.90
4487;DHT22;2256;48.740;9.106;2023-12-20T01:24:23;5.40;99.90
4487;DHT22;2256;48.740;9.106;2023-12-20T01:26:50;5.40;99.90
4487;DHT22;2256;48.740;9.106;2023-12-20T01:29:17;5.40;99.90
4487;DHT22;2256;48.740;9.106;2023-12-20T01:31:43;5.50;99.90
4487;DHT22;2256;48.740;9.106;2023-12-20T01:34:10;5.40;99.90
4487;DHT22;2256;48.740;9.106;2023-12-20T01:36:37;5.40;99.90
4487;DHT22;2256;48.740;9.106;2023-12-20T01:39:04;5.40;99.90
4487;DHT22;2256;48.740;9.106;2023-12-20T01:41:32;5.40;99.90
4487;DHT22;2256;48.740;9.106;2023-12-20T01:43:58;5.40;99.90
4487;DHT22;2256;48.740;9.106;2023-12-20T01:46:25;5.40;99.90
4487;DHT22;2256;48.740;9.106;2023-12-20T01:48:52;5.40;99.90
4487;DHT22;2256;48.740;9.106;2023-12-20T01:51:20;5.40;99.90
4487;DHT22;2256;48.740;9.106;2023-12-20T01:53:47;5.50;99.90
4487;DHT22;2256;48.740;9.106;2023-12-20T01:56:15;5.60;99.90
4487;DHT22;2256;48.740;9.106;2023-12-20T01:58:45;5.60;99.90
4487;DHT22;2256;48.740;9.106;2023-12-20T02:01:13;5.60;99.90
4487;DHT22;2256;48.740;9.106;2023-12-20T02:03:40;5.60;99.90
4487;DHT22;2256;48.740;9.106;2023-12-20T02:06:08;5.60;99.90
4487;DHT22;2256;48.740;9.106;2023-12-20T02:08:34;5.50;99.90
4487;DHT22;2256;48.740;9.106;2023-12-20T02:11:02;5.50;99.90
4487;DHT22;2256;48.740;9.106;2023-12-20T02:13:28;5.60;99.90
4487;DHT22;2256;48.740;9.106;2023-12-20T02:15:57;5.60;99.90
4487;DHT22;2256;48.740;9.106;2023-12-20T02:18:23;5.50;99.90
4487;DHT22;2256;48.740;9.106;2023-12-20T02:20:50;5.60;99.90
4487;DHT22;2256;48.740;9.106;2023-12-20T02:23:18;5.60;99.90
4487;DHT22;2256;48.740;9.106;2023-12-20T02:25:45;5.50;99.90
4487;DHT22;2256;48.740;9.106;2023-12-20T02:28:12;5.50;99.90
4487;DHT22;2256;48.740;9.106;2023-12-20T02:30:39;5.50;99.90
4487;DHT22;2256;48.740;9.106;2023-12-20T02:33:08;5.60;99.90
4487;DHT22;2256;48.740;9.106;2023-12-20T02:35:37;5.50;99.90
4487;DHT22;2256;48.740;9.106;2023-12-20T02:38:04;5.50;99.90
4487;DHT22;2256;48.740;9.106;2023-12-20T02:40:32;5.40;99.90
4487;DHT22;2256;48.740;9.106;2023-12-20T02:42:59;5.50;99.90
4487;DHT22;2256;48.740;9.106;2023-12-20T02:45:26;5.50;99.90
4487;DHT22;2256;48.740;9.106;2023-12-20T02:47:53;5.60;99.90
4487;DHT22;2256;48.740;9.106;2023-12-20T02:50:20;5.60;99.90
4487;DHT22;2256;48.740;9.106;2023-12-20T02:52:47;5.70;99.90
4487;DHT22;2256;48.740;9.106;2023-12-20T02:55:14;5.70;99.90
4487;DHT22;2256;48.740;9.106;2023-12-20T02:57:42;5.80;99.90
4487;DHT22;2256;48.740;9.106;2023-12-20T03:00:09;5.80;99.90
4487;DHT22;2256;48.740;9.106;2023-12-20T03:02:36;5.80;99.90
4487;DHT22;2256;48.740;9.106;2023-12-20T03:05:03;5.80;99.90
4487;DHT22;2256;48.740;9.106;2023-12-20T03:07:30;5.90;99.90
4487;DHT22;2256;48.740;9.106;2023-12-20T03:09:56;5.90;99.90
4487;DHT22;2256;48.740;9.106;2023-12-20T03:12:23;5.90;99.90
4487;DHT22;2256;48.740;9.106;2023-12-20T03:14:52;5.80;99.90
4487;DHT22;2256;48.740;9.106;2023-12-20T03:17:18;5.80;99.90
4487;DHT22;2256;48.740;9.106;2023-12-20T03:19:46;5.80;99.90
4487;DHT22;2256;48.740;9.106;2023-12-20T03:22:12;5.80;99.90
4487;DHT22;2256;48.740;9.106;2023-12-20T03:24:39;5.80;99.90
4487;DHT22;2256;48.740;9.106;2023-12-20T03:27:06;5.80;99.90
4487;DHT22;2256;48.740;9.106;2023-12-20T03:29:32;5.80;99.90
4487;DHT22;2256;48.740;9.106;2023-12-20T03:32:01;5.80;99.90
4487;DHT22;2256;48.740;9.106;2023-12-20T03:34:27;5.80;99.90
4487;DHT22;2256;48.740;9.106;2023-12-20T03:36:54;5.80;99.90
4487;DHT22;2256;48.740;9.106;2023-12-20T03:39:21;5.80;99.90
4487;DHT22;2256;48.740;9.106;2023-12-20T03:41:48;5.80;99.90
4487;DHT22;2256;48.740;9.106;2023-12-20T03:44:14;5.70;99.90
4487;DHT22;2256;48.740;9.106;2023-12-20T03:46:41;5.70;99.90
4487;DHT22;2256;48.740;9.106;2023-12-20T03:49:09;5.60;99.90
4487;DHT22;2256;48.740;9.106;2023-12-20T03:51:36;5.60;99.90
4487;DHT22;2256;48.740;9.106;2023-12-20T03:54:03;5.60;99.90
4487;DHT22;2256;48.740;9.106;2023-12-20T03:56:30;5.50;99.90
4487;DHT22;2256;48.740;9.106;2023-12-20T03:58:56;5.50;99.90
4487;DHT22;2256;48.740;9.106;2023-12-20T04:01:23;5.50;99.90
4487;DHT22;2256;48.740;9.106;2023-12-20T04:03:50;5.50;99.90
4487;DHT22;2256;48.740;9.106;2023-12-20T04:06:18;5.40;99.90
4487;DHT22;2256;48.740;9.106;2023-12-20T04:08:45;5.40;99.90
4487;DHT22;2256;48.740;9.106;2023-12-20T04:11:12;5.40;99.90
4487;DHT22;2256;48.740;9.106;2023-12-20T04:13:38;5.40;99.90
4487;DHT22;2256;48.740;9.106;2023-12-20T04:16:05;5.40;99.90
4487;DHT22;2256;48.740;9.106;2023-12-20T04:18:32;5.30;99.90
4487;DHT22;2256;48.740;9.106;2023-12-20T04:20:59;5.20;99.90
4487;DHT22;2256;48.740;9.106;2023-12-20T04:23:27;5.30;99.90
4487;DHT22;2256;48.740;9.106;2023-12-20T04:25:54;5.30;99.90
4487;DHT22;2256;48.740;9.106;2023-12-20T04:28:22;5.30;99.90
4487;DHT22;2256;48.740;9.106;2023-12-20T04:30:48;5.30;99.90
4487;DHT22;2256;48.740;9.106;2023-12-20T04:33:15;5.30;99.90
4487;DHT22;2256;48.740;9.106;2023-12-20T04:35:42;5.30;99.90
4487;DHT22;2256;48.740;9.106;2023-12-20T04:38:11;5.30;99.90
4487;DHT22;2256;48.740;9.106;2023-12-20T04:40:39;5.30;99.90
4487;DHT22;2256;48.740;9.106;2023-12-20T04:43:06;5.30;99.90
4487;DHT22;2256;48.740;9.106;2023-12-20T04:45:34;5.20;99.90
4487;DHT22;2256;48.740;9.106;2023-12-20T04:48:01;5.20;99.90
4487;DHT22;2256;48.740;9.106;2023-12-20T04:50:28;5.20;99.90
4487;DHT22;2256;48.740;9.106;2023-12-20T04:52:55;5.30;99.90
4487;DHT22;2256;48.740;9.106;2023-12-20T04:55:22;5.30;99.90
4487;DHT22;2256;48.740;9.106;2023-12-20T04:57:50;5.30;99.90
4487;DHT22;2256;48.740;9.106;2023-12-20T05:00:17;5.20;99.90
4487;DHT22;2256;48.740;9.106;2023-12-20T05:02:44;5.20;99.90
4487;DHT22;2256;48.740;9.106;2023-12-20T05:05:10;5.20;99.90
4487;DHT22;2256;48.740;9.106;2023-12-20T05:07:38;5.20;99.90
4487;DHT22;2256;48.740;9.106;2023-12-20T05:10:05;5.30;99.90
4487;DHT22;2256;48.740;9.106;2023-12-20T05:12:33;5.30;99.90
4487;DHT22;2256;48.740;9.106;2023-12-20T05:15:02;5.30;99.90
4487;DHT22;2256;48.740;9.106;2023-12-20T05:17:28;5.20;99.90
4487;DHT22;2256;48.740;9.106;2023-12-20T05:19:55;5.20;99.90
4487;DHT22;2256;48.740;9.106;2023-12-20T05:22:22;5.20;99.90
4487;DHT22;2256;48.740;9.106;2023-12-20T05:24:49;5.20;99.90
4487;DHT22;2256;48.740;9.106;2023-12-20T05:27:15;5.20;99.90
4487;DHT22;2256;48.740;9.106;2023-12-20T05:29:42;5.20;99.90
4487;DHT22;2256;48.740;9.106;2023-12-20T05:32:10;5.20;99.90
4487;DHT22;2256;48.740;9.106;2023-12-20T05:34:37;5.20;99.90
4487;DHT22;2256;48.740;9.106;2023-12-20T05:37:04;5.20;99.90
4487;DHT22;2256;48.740;9.106;2023-12-20T05:39:30;5.20;99.90
4487;DHT22;2256;48.740;9.106;2023-12-20T05:41:57;5.20;99.90
4487;DHT22;2256;48.740;9.106;2023-12-20T05:44:24;5.20;99.90
4487;DHT22;2256;48.740;9.106;2023-12-20T05:46:51;5.20;99.90
4487;DHT22;2256;48.740;9.106;2023-12-20T05:49:19;5.20;99.90
4487;DHT22;2256;48.740;9.106;2023-12-20T05:51:47;5.20;99.90
4487;DHT22;2256;48.740;9.106;2023-12-20T05:54:14;5.20;99.90
4487;DHT22;2256;48.740;9.106;2023-12-20T05:56:40;5.20;99.90
4487;DHT22;2256;48.740;9.106;2023-12-20T05:59:07;5.20;99.90
4487;DHT22;2256;48.740;9.106;2023-12-20T06:01:34;5.20;99.90
4487;DHT22;2256;48.740;9.106;2023-12-20T06:04:01;5.20;99.90
4487;DHT22;2256;48.740;9.106;2023-12-20T06:06:30;5.30;99.90
4487;DHT22;2256;48.740;9.106;2023-12-20T06:08:57;5.30;99.90
4487;DHT22;2256;48.740;9.106;2023-12-20T06:11:24;5.30;99.90
4487;DHT22;2256;48.740;9.106;2023-12-20T06:13:50;5.30;99.90
4487;DHT22;2256;48.740;9.106;2023-12-20T06:16:19;5.30;99.90
4487;DHT22;2256;48.740;9.106;2023-12-20T06:18:45;5.30;99.90
4487;DHT22;2256;48.740;9.106;2023-12-20T06:21:12;5.30;99.90
4487;DHT22;2256;48.740;9.106;2023-12-20T06:23:41;5.30;99.90
4487;DHT22;2256;48.740;9.106;2023-12-20T06:26:08;5.30;99.90
4487;DHT22;2256;48.740;9.106;2023-12-20T06:28:35;5.30;99.90
4487;DHT22;2256;48.740;9.106;2023-12-20T06:31:01;5.40;99.90
4487;DHT22;2256;48.740;9.106;2023-12-20T06:33:29;5.40;99.90
4487;DHT22;2256;48.740;9.106;2023-12-20T06:35:56;5.40;99.90
4487;DHT22;2256;48.740;9.106;2023-12-20T06:38:23;5.50;99.90
4487;DHT22;2256;48.740;9.106;2023-12-20T06:40:51;5.50;99.90
4487;DHT22;2256;48.740;9.106;2023-12-20T06:43:18;5.50;99.90
4487;DHT22;2256;48.740;9.106;2023-12-20T06:45:44;5.60;99.90
4487;DHT22;2256;48.740;9.106;2023-12-20T06:48:11;5.60;99.90
4487;DHT22;2256;48.740;9.106;2023-12-20T06:50:38;5.50;99.90
4487;DHT22;2256;48.740;9.106;2023-12-20T06:53:05;5.60;99.90
4487;DHT22;2256;48.740;9.106;2023-12-20T06:55:33;5.60;99.90
4487;DHT22;2256;48.740;9.106;2023-12-20T06:58:02;5.60;99.90
4487;DHT22;2256;48.740;9.106;2023-12-20T07:00:30;5.60;99.90
4487;DHT22;2256;48.740;9.106;2023-12-20T07:02:56;5.60;99.90
4487;DHT22;2256;48.740;9.106;2023-12-20T07:05:23;5.60;99.90
4487;DHT22;2256;48.740;9.106;2023-12-20T07:07:50;5.50;99.90
4487;DHT22;2256;48.740;9.106;2023-12-20T07:10:17;5.50;99.90
4487;DHT22;2256;48.740;9.106;2023-12-20T07:12:44;5.50;99.90
4487;DHT22;2256;48.740;9.106;2023-12-20T07:15:12;5.60;99.90
4487;DHT22;2256;48.740;9.106;2023-12-20T07:17:39;5.50;99.90
4487;DHT22;2256;48.740;9.106;2023-12-20T07:20:07;5.50;99.90
4487;DHT22;2256;48.740;9.106;2023-12-20T07:22:36;5.50;99.90
4487;DHT22;2256;48.740;9.106;2023-12-20T07:25:04;5.50;99.90
4487;DHT22;2256;48.740;9.106;2023-12-20T07:27:30;5.60;99.90
4487;DHT22;2256;48.740;9.106;2023-12-20T07:29:57;5.50;99.90
4487;DHT22;2256;48.740;9.106;2023-12-20T07:32:25;5.50;99.90
4487;DHT22;2256;48.740;9.106;2023-12-20T07:34:52;5.40;99.90
4487;DHT22;2256;48.740;9.106;2023-12-20T07:37:20;5.40;99.90
4487;DHT22;2256;48.740;9.106;2023-12-20T07:39:47;5.30;99.90
4487;DHT22;2256;48.740;9.106;2023-12-20T07:42:13;5.30;99.90
4487;DHT22;2256;48.740;9.106;2023-12-20T07:44:40;5.30;99.90
4487;DHT22;2256;48.740;9.106;2023-12-20T07:47:07;5.10;99.90
4487;DHT22;2256;48.740;9.106;2023-12-20T07:49:35;5.10;99.90
4487;DHT22;2256;48.740;9.106;2023-12-20T07:52:02;5.10;99.90
4487;DHT22;2256;48.740;9.106;2023-12-20T07:54:29;5.00;99.90
4487;DHT22;2256;48.740;9.106;2023-12-20T07:56:56;5.00;99.90
4487;DHT22;2256;48.740;9.106;2023-12-20T07:59:23;5.00;99.90
4487;DHT22;2256;48.740;9.106;2023-12-20T08:01:50;5.00;99.90
4487;DHT22;2256;48.740;9.106;2023-12-20T08:04:17;5.00;99.90
4487;DHT22;2256;48.740;9.106;2023-12-20T08:06:45;5.10;99.90
4487;DHT22;2256;48.740;9.106;2023-12-20T08:09:11;5.00;99.90
4487;DHT22;2256;48.740;9.106;2023-12-20T08:11:38;5.00;99.90
4487;DHT22;2256;48.740;9.106;2023-12-20T08:14:05;5.00;99.90
4487;DHT22;2256;48.740;9.106;2023-12-20T08:16:32;4.90;99.90
4487;DHT22;2256;48.740;9.106;2023-12-20T08:18:58;4.90;99.90
4487;DHT22;2256;48.740;9.106;2023-12-20T08:21:25;5.00;99.90
4487;DHT22;2256;48.740;9.106;2023-12-20T08:23:53;5.10;99.90
4487;DHT22;2256;48.740;9.106;2023-12-20T08:26:20;5.10;99.90
4487;DHT22;2256;48.740;9.106;2023-12-20T08:28:48;5.10;99.90
4487;DHT22;2256;48.740;9.106;2023-12-20T08:31:15;5.10;99.90
4487;DHT22;2256;48.740;9.106;2023-12-20T08:33:43;5.00;99.90
4487;DHT22;2256;48.740;9.106;2023-12-20T08:36:10;5.00;99.90
4487;DHT22;2256;48.740;9.106;2023-12-20T08:38:37;5.00;99.90
4487;DHT22;2256;48.740;9.106;2023-12-20T08:41:06;5.10;99.90
4487;DHT22;2256;48.740;9.106;2023-12-20T08:43:34;5.10;99.90
4487;DHT22;2256;48.740;9.106;2023-12-20T08:46:01;5.10;99.90
4487;DHT22;2256;48.740;9.106;2023-12-20T08:48:28;5.10;99.90
4487;DHT22;2256;48.740;9.106;2023-12-20T08:50:55;5.10;99.90
4487;DHT22;2256;48.740;9.106;2023-12-20T08:53:22;5.10;99.90
4487;DHT22;2256;48.740;9.106;2023-12-20T08:55:49;5.00;99.90
4487;DHT22;2256;48.740;9.106;2023-12-20T08:58:17;4.90;99.90
4487;DHT22;2256;48.740;9.106;2023-12-20T09:00:44;4.80;99.90
4487;DHT22;2256;48.740;9.106;2023-12-20T09:03:11;4.80;99.90
4487;DHT22;2256;48.740;9.106;2023-12-20T09:05:38;4.90;99.90
4487;DHT22;2256;48.740;9.106;2023-12-20T09:08:05;5.40;99.90
4487;DHT22;2256;48.740;9.106;2023-12-20T09:10:33;7.10;99.90
4487;DHT22;2256;48.740;9.106;2023-12-20T09:13:00;9.20;99.90
4487;DHT22;2256;48.740;9.106;2023-12-20T09:15:28;10.80;99.90
4487;DHT22;2256;48.740;9.106;2023-12-20T09:17:55;12.00;99.90
4487;DHT22;2256;48.740;9.106;2023-12-20T09:20:22;12.20;99.90
4487;DHT22;2256;48.740;9.106;2023-12-20T09:22:49;12.10;99.90
4487;DHT22;2256;48.740;9.106;2023-12-20T09:25:16;11.40;99.90
4487;DHT22;2256;48.740;9.106;2023-12-20T09:27:43;10.60;99.90
4487;DHT22;2256;48.740;9.106;2023-12-20T09:30:10;10.10;99.90
4487;DHT22;2256;48.740;9.106;2023-12-20T09:32:38;9.50;99.90
4487;DHT22;2256;48.740;9.106;2023-12-20T09:35:05;9.10;99.90
4487;DHT22;2256;48.740;9.106;2023-12-20T09:37:34;8.60;99.90
4487;DHT22;2256;48.740;9.106;2023-12-20T09:40:01;8.20;99.90
4487;DHT22;2256;48.740;9.106;2023-12-20T09:42:35;7.80;99.90
4487;DHT22;2256;48.740;9.106;2023-12-20T09:45:08;7.30;99.90
4487;DHT22;2256;48.740;9.106;2023-12-20T09:47:37;6.90;99.90
4487;DHT22;2256;48.740;9.106;2023-12-20T09:50:05;6.60;99.90
4487;DHT22;2256;48.740;9.106;2023-12-20T09:52:32;6.40;99.90
4487;DHT22;2256;48.740;9.106;2023-12-20T09:55:01;6.20;99.90
4487;DHT22;2256;48.740;9.106;2023-12-20T09:57:31;6.00;99.90
4487;DHT22;2256;48.740;9.106;2023-12-20T09:59:58;5.90;99.90
4487;DHT22;2256;48.740;9.106;2023-12-20T10:02:25;5.90;99.90
4487;DHT22;2256;48.740;9.106;2023-12-20T10:04:54;5.80;99.90
4487;DHT22;2256;48.740;9.106;2023-12-20T10:07:21;5.80;99.90
4487;DHT22;2256;48.740;9.106;2023-12-20T10:09:49;5.80;99.90
4487;DHT22;2256;48.740;9.106;2023-12-20T10:12:17;5.90;99.90
4487;DHT22;2256;48.740;9.106;2023-12-20T10:14:47;6.30;99.90
4487;DHT22;2256;48.740;9.106;2023-12-20T10:17:14;6.70;99.90
4487;DHT22;2256;48.740;9.106;2023-12-20T10:19:42;6.70;99.90
4487;DHT22;2256;48.740;9.106;2023-12-20T10:22:10;6.70;99.90
4487;DHT22;2256;48.740;9.106;2023-12-20T10:24:37;6.70;99.90
4487;DHT22;2256;48.740;9.106;2023-12-20T10:27:05;6.50;99.90
4487;DHT22;2256;48.740;9.106;2023-12-20T10:29:33;6.40;99.90
4487;DHT22;2256;48.740;9.106;2023-12-20T10:32:00;6.30;99.90
4487;DHT22;2256;48.740;9.106;2023-12-20T10:34:26;6.30;99.90
4487;DHT22;2256;48.740;9.106;2023-12-20T10:36:53;6.30;99.90
4487;DHT22;2256;48.740;9.106;2023-12-20T10:39:22;6.20;99.90
4487;DHT22;2256;48.740;9.106;2023-12-20T10:41:49;6.20;99.90
4487;DHT22;2256;48.740;9.106;2023-12-20T10:44:16;6.20;99.90
4487;DHT22;2256;48.740;9.106;2023-12-20T10:46:43;6.20;99.90
4487;DHT22;2256;48.740;9.106;2023-12-20T10:49:17;6.20;99.90
4487;DHT22;2256;48.740;9.106;2023-12-20T10:51:46;6.30;99.90
4487;DHT22;2256;48.740;9.106;2023-12-20T10:54:14;6.30;99.90
4487;DHT22;2256;48.740;9.106;2023-12-20T10:56:42;6.30;99.90
4487;DHT22;2256;48.740;9.106;2023-12-20T10:59:11;6.30;99.90
4487;DHT22;2256;48.740;9.106;2023-12-20T11:01:40;6.30;99.90
4487;DHT22;2256;48.740;9.106;2023-12-20T11:04:10;6.30;99.90
4487;DHT22;2256;48.740;9.106;2023-12-20T11:06:45;6.20;99.90
4487;DHT22;2256;48.740;9.106;2023-12-20T11:09:19;6.30;99.90
4487;DHT22;2256;48.740;9.106;2023-12-20T11:12:01;6.10;99.90
4487;DHT22;2256;48.740;9.106;2023-12-20T11:14:33;6.10;99.90
4487;DHT22;2256;48.740;9.106;2023-12-20T11:17:08;6.20;99.90
4487;DHT22;2256;48.740;9.106;2023-12-20T11:19:36;6.20;99.90
4487;DHT22;2256;48.740;9.106;2023-12-20T11:22:04;6.30;99.90
4487;DHT22;2256;48.740;9.106;2023-12-20T11:24:31;6.30;99.90
4487;DHT22;2256;48.740;9.106;2023-12-20T11:27:01;6.30;99.90
4487;DHT22;2256;48.740;9.106;2023-12-20T11:29:32;6.20;99.90
4487;DHT22;2256;48.740;9.106;2023-12-20T11:32:01;6.20;99.90
4487;DHT22;2256;48.740;9.106;2023-12-20T11:34:28;6.20;99.90
4487;DHT22;2256;48.740;9.106;2023-12-20T11:36:58;6.20;99.90
4487;DHT22;2256;48.740;9.106;2023-12-20T11:39:25;6.00;99.90
4487;DHT22;2256;48.740;9.106;2023-12-20T11:41:54;6.00;99.90
4487;DHT22;2256;48.740;9.106;2023-12-20T11:44:25;5.90;99.90
4487;DHT22;2256;48.740;9.106;2023-12-20T11:46:51;5.80;99.90
4487;DHT22;2256;48.740;9.106;2023-12-20T11:49:23;5.80;99.90
4487;DHT22;2256;48.740;9.106;2023-12-20T11:51:50;5.90;99.90
4487;DHT22;2256;48.740;9.106;2023-12-20T11:54:16;5.90;99.90
4487;DHT22;2256;48.740;9.106;2023-12-20T11:56:43;5.90;99.90
4487;DHT22;2256;48.740;9.106;2023-12-20T11:59:10;5.90;99.90
4487;DHT22;2256;48.740;9.106;2023-12-20T12:01:38;5.80;99.90
4487;DHT22;2256;48.740;9.106;2023-12-20T12:04:05;5.70;99.90
4487;DHT22;2256;48.740;9.106;2023-12-20T12:06:32;5.60;99.90
4487;DHT22;2256;48.740;9.106;2023-12-20T12:08:59;5.60;99.90
4487;DHT22;2256;48.740;9.106;2023-12-20T12:11:25;5.50;99.90
4487;DHT22;2256;48.740;9.106;2023-12-20T12:13:51;5.40;99.90
4487;DHT22;2256;48.740;9.106;2023-12-20T12:16:19;5.40;99.90
4487;DHT22;2256;48.740;9.106;2023-12-20T12:18:55;5.40;99.90
4487;DHT22;2256;48.740;9.106;2023-12-20T12:21:22;5.50;99.90
4487;DHT22;2256;48.740;9.106;2023-12-20T12:23:48;5.60;99.90
4487;DHT22;2256;48.740;9.106;2023-12-20T12:26:15;5.80;99.90
4487;DHT22;2256;48.740;9.106;2023-12-20T12:28:42;5.90;99.90
4487;DHT22;2256;48.740;9.106;2023-12-20T12:31:13;6.00;99.90
4487;DHT22;2256;48.740;9.106;2023-12-20T12:33:40;6.00;99.90
4487;DHT22;2256;48.740;9.106;2023-12-20T12:36:09;6.10;99.90
4487;DHT22;2256;48.740;9.106;2023-12-20T12:38:36;6.10;99.90
4487;DHT22;2256;48.740;9.106;2023-12-20T12:41:04;6.00;99.90
4487;DHT22;2256;48.740;9.106;2023-12-20T12:43:32;6.10;99.90
4487;DHT22;2256;48.740;9.106;2023-12-20T12:45:58;6.10;99.90
4487;DHT22;2256;48.740;9.106;2023-12-20T12:48:25;6.10;99.90
4487;DHT22;2256;48.740;9.106;2023-12-20T12:50:53;6.20;99.90
4487;DHT22;2256;48.740;9.106;2023-12-20T12:53:25;6.30;99.90
4487;DHT22;2256;48.740;9.106;2023-12-20T12:55:53;6.40;99.90
4487;DHT22;2256;48.740;9.106;2023-12-20T12:58:20;6.30;99.90
4487;DHT22;2256;48.740;9.106;2023-12-20T13:00:47;6.30;99.90
4487;DHT22;2256;48.740;9.106;2023-12-20T13:03:14;6.20;99.90
4487;DHT22;2256;48.740;9.106;2023-12-20T13:05:41;6.30;99.90
4487;DHT22;2256;48.740;9.106;2023-12-20T13:08:08;6.40;99.90
4487;DHT22;2256;48.740;9.106;2023-12-20T13:10:38;6.40;99.90
4487;DHT22;2256;48.740;9.106;2023-12-20T13:13:05;6.40;99.90
4487;DHT22;2256;48.740;9.106;2023-12-20T13:15:32;6.40;99.90
4487;DHT22;2256;48.740;9.106;2023-12-20T13:17:59;6.40;99.90
4487;DHT22;2256;48.740;9.106;2023-12-20T13:20:26;6.30;99.90
4487;DHT22;2256;48.740;9.106;2023-12-20T13:22:53;6.20;99.90
4487;DHT22;2256;48.740;9.106;2023-12-20T13:25:20;6.20;99.90
4487;DHT22;2256;48.740;9.106;2023-12-20T13:27:48;6.30;99.90
4487;DHT22;2256;48.740;9.106;2023-12-20T13:30:16;6.30;99.90
4487;DHT22;2256;48.740;9.106;2023-12-20T13:32:43;6.30;99.90
4487;DHT22;2256;48.740;9.106;2023-12-20T13:35:09;6.10;99.90
4487;DHT22;2256;48.740;9.106;2023-12-20T13:37:36;6.00;99.90
4487;DHT22;2256;48.740;9.106;2023-12-20T13:40:04;6.10;99.90
4487;DHT22;2256;48.740;9.106;2023-12-20T13:42:31;6.10;99.90
4487;DHT22;2256;48.740;9.106;2023-12-20T13:44:59;6.20;99.90
4487;DHT22;2256;48.740;9.106;2023-12-20T13:47:26;6.10;99.90
4487;DHT22;2256;48.740;9.106;2023-12-20T13:49:54;6.10;99.90
4487;DHT22;2256;48.740;9.106;2023-12-20T13:52:21;6.10;99.90
4487;DHT22;2256;48.740;9.106;2023-12-20T13:54:48;6.00;99.90
4487;DHT22;2256;48.740;9.106;2023-12-20T13:57:14;5.90;99.90
4487;DHT22;2256;48.740;9.106;2023-12-20T13:59:41;5.90;99.90
4487;DHT22;2256;48.740;9.106;2023-12-20T14:02:10;5.90;99.90
4487;DHT22;2256;48.740;9.106;2023-12-20T14:04:36;5.90;99.90
4487;DHT22;2256;48.740;9.106;2023-12-20T14:07:04;5.90;99.90
4487;DHT22;2256;48.740;9.106;2023-12-20T14:09:33;5.90;99.90
4487;DHT22;2256;48.740;9.106;2023-12-20T14:11:59;5.80;99.90
4487;DHT22;2256;48.740;9.106;2023-12-20T14:14:26;5.70;99.90
4487;DHT22;2256;48.740;9.106;2023-12-20T14:16:53;5.60;99.90
4487;DHT22;2256;48.740;9.106;2023-12-20T14:19:21;5.60;99.90
4487;DHT22;2256;48.740;9.106;2023-12-20T14:21:48;5.70;99.90
4487;DHT22;2256;48.740;9.106;2023-12-20T14:24:14;5.70;99.90
4487;DHT22;2256;48.740;9.106;2023-12-20T14:26:41;5.60;99.90
4487;DHT22;2256;48.740;9.106;2023-12-20T14:29:08;5.50;99.90
4487;DHT22;2256;48.740;9.106;2023-12-20T14:31:35;5.50;99.90
4487;DHT22;2256;48.740;9.106;2023-12-20T14:34:03;5.40;99.90
4487;DHT22;2256;48.740;9.106;2023-12-20T14:36:31;5.40;99.90
4487;DHT22;2256;48.740;9.106;2023-12-20T14:38:58;5.30;99.90
4487;DHT22;2256;48.740;9.106;2023-12-20T14:41:25;5.20;99.90
4487;DHT22;2256;48.740;9.106;2023-12-20T14:43:52;5.20;99.90
4487;DHT22;2256;48.740;9.106;2023-12-20T14:46:19;5.20;99.90
4487;DHT22;2256;48.740;9.106;2023-12-20T14:48:45;5.10;99.90
4487;DHT22;2256;48.740;9.106;2023-12-20T14:51:12;5.00;99.90
4487;DHT22;2256;48.740;9.106;2023-12-20T14:53:40;5.10;99.90
4487;DHT22;2256;48.740;9.106;2023-12-20T14:56:07;5.00;99.90
4487;DHT22;2256;48.740;9.106;2023-12-20T14:58:34;5.00;99.90
4487;DHT22;2256;48.740;9.106;2023-12-20T15:01:02;5.00;99.90
4487;DHT22;2256;48.740;9.106;2023-12-20T15:03:29;4.90;99.90
4487;DHT22;2256;48.740;9.106;2023-12-20T15:05:56;5.00;99.90
4487;DHT22;2256;48.740;9.106;2023-12-20T15:08:24;5.00;99.90
4487;DHT22;2256;48.740;9.106;2023-12-20T15:10:52;5.00;99.90
4487;DHT22;2256;48.740;9.106;2023-12-20T15:13:19;4.90;99.90
4487;DHT22;2256;48.740;9.106;2023-12-20T15:15:46;4.90;99.90
4487;DHT22;2256;48.740;9.106;2023-12-20T15:18:12;4.90;99.90
4487;DHT22;2256;48.740;9.106;2023-12-20T15:20:40;4.80;99.90
4487;DHT22;2256;48.740;9.106;2023-12-20T15:23:09;4.80;99.90
4487;DHT22;2256;48.740;9.106;2023-12-20T15:25:36;4.80;99.90
4487;DHT22;2256;48.740;9.106;2023-12-20T15:28:04;4.80;99.90
4487;DHT22;2256;48.740;9.106;2023-12-20T15:30:31;4.70;99.90
4487;DHT22;2256;48.740;9.106;2023-12-20T15:32:57;4.70;99.90
4487;DHT22;2256;48.740;9.106;2023-12-20T15:35:25;4.70;99.90
4487;DHT22;2256;48.740;9.106;2023-12-20T15:37:52;4.70;99.90
4487;DHT22;2256;48.740;9.106;2023-12-20T15:40:18;4.70;99.90
4487;DHT22;2256;48.740;9.106;2023-12-20T15:42:45;4.60;99.90
4487;DHT22;2256;48.740;9.106;2023-12-20T15:45:13;4.60;99.90
4487;DHT22;2256;48.740;9.106;2023-12-20T15:47:40;4.60;99.90
4487;DHT22;2256;48.740;9.106;2023-12-20T15:50:07;4.50;99.90
4487;DHT22;2256;48.740;9.106;2023-12-20T15:52:34;4.50;99.90
4487;DHT22;2256;48.740;9.106;2023-12-20T15:55:02;4.40;99.90
4487;DHT22;2256;48.740;9.106;2023-12-20T15:57:29;4.40;99.90
4487;DHT22;2256;48.740;9.106;2023-12-20T15:59:56;4.30;99.90
4487;DHT22;2256;48.740;9.106;2023-12-20T16:02:24;4.30;99.90
4487;DHT22;2256;48.740;9.106;2023-12-20T16:04:51;4.40;99.90
4487;DHT22;2256;48.740;9.106;2023-12-20T16:07:18;4.30;99.90
4487;DHT22;2256;48.740;9.106;2023-12-20T16:09:44;4.30;99.90
4487;DHT22;2256;48.740;9.106;2023-12-20T16:12:11;4.40;99.90
4487;DHT22;2256;48.740;9.106;2023-12-20T16:14:38;4.30;99.90
4487;DHT22;2256;48.740;9.106;2023-12-20T16:17:05;4.40;99.90